Ambler Airport Ambler US
ICAO: PAFM
IATA:
Category: Medium
Scheduled Services:

Elevation: 334 ft
TransAlt. 18000 ft.

Airport Communications:
AWOS 3:132.1
ANCHORAGE CNTR:119.2
CTAF:122.7
KOTEZBUE RDO:122
TWEB:40.3

PAFM Zoom In..

If you have problems with the map follow the link
https://www.worldairports.se/pages/airport.php?
ICAO=PAFM

Runways:

(A) RW 09 length 2400 ft width 60 ft
---- / hdg 91

(B) RW 18 length 3000 ft width 60 ft
---- / hdg 181

(C) RW 27 length 2400 ft width 60 ft
---- / hdg 271

(D) RW 36 length 3000 ft width 60 ft
---- / hdg 1

Location; PAFM
Day. 25 / Time. 06.56 Zulu
* Altimeter: 30.12
* Temperature: -29° c. 20.2°f.
* Wind from: VRB° Speed 03 kn.
Dewpoint: -32° c.
Visibility: 10 Statute Miles.
Clouds: Clear (automated report).

PAFM 250656Z AUTO VRB03KT 10SM CLR M29/M32 A3012 RMK AO2 SLP216 T12891317 FZRANO


Wind From VRB°
Speed 03 kn.

 
 
jpsmedia worldairports.se 2020   terms of use